createdAt,value
2023-04-29T00:01:37.858Z,35.99
2023-04-29T00:04:06.364Z,36.10
2023-04-29T00:06:34.713Z,36.10
2023-04-29T00:09:02.912Z,36.04
2023-04-29T00:11:31.123Z,36.16
2023-04-29T00:13:59.316Z,36.42
2023-04-29T00:16:27.601Z,36.71
2023-04-29T00:18:56.325Z,36.66
2023-04-29T00:21:25.452Z,36.66
2023-04-29T00:23:53.697Z,36.67
2023-04-29T00:26:21.940Z,36.70
2023-04-29T00:28:50.176Z,36.43
2023-04-29T00:31:18.425Z,36.66
2023-04-29T00:33:47.284Z,36.96
2023-04-29T00:36:15.956Z,37.06
2023-04-29T00:38:44.397Z,37.24
2023-04-29T00:41:12.778Z,36.57
2023-04-29T00:43:41.010Z,35.45
2023-04-29T00:46:09.932Z,35.75
2023-04-29T00:48:38.291Z,36.20
2023-04-29T00:51:07.694Z,36.63
2023-04-29T00:53:36.203Z,36.79
2023-04-29T00:56:04.947Z,37.42
2023-04-29T00:58:36.150Z,37.56
2023-04-29T01:01:07.437Z,37.85
2023-04-29T01:03:38.633Z,37.62
2023-04-29T01:06:45.354Z,37.93
2023-04-29T01:09:42.290Z,38.59
2023-04-29T01:12:33.213Z,38.21
2023-04-29T01:15:11.816Z,38.64
2023-04-29T01:17:45.813Z,39.14
2023-04-29T01:20:15.914Z,39.00
2023-04-29T01:22:44.302Z,40.35
2023-04-29T01:25:12.516Z,40.07
2023-04-29T01:28:08.593Z,40.41
2023-04-29T01:30:43.935Z,40.34
2023-04-29T01:33:22.342Z,40.37
2023-04-29T01:36:02.231Z,40.74
2023-04-29T01:38:54.369Z,40.64
2023-04-29T01:41:40.769Z,41.59
2023-04-29T01:44:14.530Z,41.72
2023-04-29T01:46:44.409Z,41.79
2023-04-29T01:49:14.200Z,41.64
2023-04-29T01:51:42.486Z,42.15
2023-04-29T01:54:11.308Z,42.51
2023-04-29T01:56:39.542Z,42.26
2023-04-29T01:59:09.044Z,42.31
2023-04-29T02:01:37.424Z,42.52
2023-04-29T02:04:06.086Z,42.28
2023-04-29T02:06:34.481Z,42.19
2023-04-29T02:09:02.717Z,42.56
2023-04-29T02:11:31.134Z,42.58
2023-04-29T02:13:59.560Z,42.94
2023-04-29T02:16:27.843Z,42.98
2023-04-29T02:18:56.199Z,43.07
2023-04-29T02:21:24.861Z,43.33
2023-04-29T02:23:55.269Z,43.49
2023-04-29T02:26:24.605Z,43.70
2023-04-29T02:28:53.422Z,43.52
2023-04-29T02:31:21.704Z,43.64
2023-04-29T02:33:50.079Z,43.76
2023-04-29T02:36:19.150Z,43.80
2023-04-29T02:38:47.801Z,43.74
2023-04-29T02:41:19.607Z,43.75
2023-04-29T02:43:49.943Z,44.09
2023-04-29T02:46:19.670Z,44.40
2023-04-29T02:48:47.920Z,44.45
2023-04-29T02:51:16.183Z,44.44
2023-04-29T02:53:45.425Z,44.92
2023-04-29T02:56:13.677Z,45.01
2023-04-29T02:58:43.117Z,45.63
2023-04-29T03:01:11.740Z,45.38
2023-04-29T03:03:40.119Z,45.84
2023-04-29T03:06:08.555Z,45.96
2023-04-29T03:08:36.784Z,46.15
2023-04-29T03:11:05.329Z,46.28
2023-04-29T03:13:33.584Z,46.94
2023-04-29T03:16:02.045Z,47.30
2023-04-29T03:18:30.254Z,47.60
2023-04-29T03:20:58.533Z,47.76
2023-04-29T03:23:27.586Z,48.21
2023-04-29T03:25:56.480Z,48.53
2023-04-29T03:28:24.907Z,48.93
2023-04-29T03:30:53.169Z,49.03
2023-04-29T03:33:21.409Z,48.98
2023-04-29T03:35:49.668Z,48.95
2023-04-29T03:38:17.909Z,49.38
2023-04-29T03:40:46.480Z,49.32
2023-04-29T03:43:15.396Z,49.61
2023-04-29T03:45:43.578Z,50.28
2023-04-29T03:48:13.326Z,50.28
2023-04-29T03:50:41.633Z,51.01
2023-04-29T03:53:09.966Z,51.33
2023-04-29T03:55:38.195Z,51.04
2023-04-29T03:58:06.485Z,51.34
2023-04-29T04:00:34.804Z,51.09
2023-04-29T04:03:05.242Z,51.07
2023-04-29T04:05:34.107Z,51.39
2023-04-29T04:08:02.767Z,51.35
2023-04-29T04:10:31.092Z,51.87
2023-04-29T04:12:59.332Z,51.95
2023-04-29T04:15:27.602Z,52.24
2023-04-29T04:17:55.852Z,52.42
2023-04-29T04:20:24.114Z,52.68
2023-04-29T04:22:52.452Z,52.98
2023-04-29T04:25:20.613Z,52.87
2023-04-29T04:27:48.878Z,52.98
2023-04-29T04:30:17.361Z,52.93
2023-04-29T04:32:46.074Z,52.81
2023-04-29T04:35:14.365Z,52.90
2023-04-29T04:37:42.611Z,52.88
2023-04-29T04:40:12.241Z,53.00
2023-04-29T04:42:40.705Z,52.94
2023-04-29T04:45:10.519Z,52.96
2023-04-29T04:47:39.089Z,53.13
2023-04-29T04:50:08.215Z,53.25
2023-04-29T04:52:36.802Z,53.43
2023-04-29T04:55:05.276Z,53.62
2023-04-29T04:57:33.583Z,53.87
2023-04-29T05:00:02.551Z,54.14
2023-04-29T05:02:30.842Z,54.23
2023-04-29T05:04:59.349Z,54.26
2023-04-29T05:07:27.569Z,54.56
2023-04-29T05:09:55.811Z,54.66
2023-04-29T05:12:26.224Z,54.73
2023-04-29T05:14:54.921Z,55.04
2023-04-29T05:17:23.418Z,55.06
2023-04-29T05:19:52.168Z,55.33
2023-04-29T05:22:20.613Z,55.63
2023-04-29T05:24:53.682Z,55.73
2023-04-29T05:27:22.115Z,56.06
2023-04-29T05:29:50.485Z,56.25
2023-04-29T05:32:18.831Z,56.38
2023-04-29T05:34:47.474Z,56.45
2023-04-29T05:37:15.879Z,56.65
2023-04-29T05:39:44.160Z,56.94
2023-04-29T05:42:12.434Z,56.89
2023-04-29T05:44:40.906Z,56.88
2023-04-29T05:47:09.193Z,57.25
2023-04-29T05:49:37.381Z,57.37
2023-04-29T05:52:07.370Z,57.18
2023-04-29T05:54:36.163Z,57.55
2023-04-29T05:57:04.596Z,57.76
2023-04-29T05:59:33.865Z,58.17
2023-04-29T06:02:02.406Z,58.18
2023-04-29T06:04:30.895Z,58.25
2023-04-29T06:06:59.543Z,58.22
2023-04-29T06:09:28.487Z,58.38
2023-04-29T06:11:57.185Z,58.51
2023-04-29T06:14:25.445Z,58.70
2023-04-29T06:16:54.597Z,58.70
2023-04-29T06:19:23.012Z,58.93
2023-04-29T06:21:51.374Z,58.76
2023-04-29T06:24:19.684Z,59.02
2023-04-29T06:26:48.421Z,59.01
2023-04-29T06:29:17.049Z,58.95
2023-04-29T06:31:45.500Z,59.23
2023-04-29T06:34:14.044Z,59.32
2023-04-29T06:36:42.464Z,59.26
2023-04-29T06:39:10.629Z,59.48
2023-04-29T06:41:38.904Z,59.50
2023-04-29T06:44:07.089Z,59.61
2023-04-29T06:46:35.262Z,59.77
2023-04-29T06:49:03.487Z,59.79
2023-04-29T06:51:33.007Z,60.00
2023-04-29T06:54:01.409Z,60.15
2023-04-29T06:56:29.591Z,60.15
2023-04-29T06:58:57.756Z,60.46
2023-04-29T07:01:25.968Z,61.12
2023-04-29T07:03:54.363Z,61.04
2023-04-29T07:06:22.780Z,61.13
2023-04-29T07:08:51.109Z,61.11
2023-04-29T07:11:19.975Z,61.30
2023-04-29T07:13:48.586Z,61.57
2023-04-29T07:16:22.872Z,61.38
2023-04-29T07:18:51.164Z,61.42
2023-04-29T07:21:19.357Z,61.54
2023-04-29T07:23:47.738Z,61.66
2023-04-29T07:26:17.817Z,61.85
2023-04-29T07:28:47.098Z,62.01
2023-04-29T07:31:15.374Z,62.04
2023-04-29T07:33:46.395Z,62.34
2023-04-29T07:36:14.727Z,62.31
2023-04-29T07:38:42.947Z,62.31
2023-04-29T07:41:11.209Z,62.32
2023-04-29T07:43:41.569Z,62.53
2023-04-29T07:46:10.568Z,62.69
2023-04-29T07:48:41.711Z,62.64
2023-04-29T07:51:15.333Z,63.05
2023-04-29T07:53:44.244Z,63.03
2023-04-29T07:56:12.532Z,63.12
2023-04-29T07:58:40.746Z,63.04
2023-04-29T08:01:12.813Z,62.92
2023-04-29T08:03:41.981Z,63.14
2023-04-29T08:06:10.607Z,63.00
2023-04-29T08:08:38.964Z,63.27
2023-04-29T08:11:07.507Z,62.93
2023-04-29T08:13:35.700Z,63.17
2023-04-29T08:16:03.906Z,63.34
2023-04-29T08:18:32.415Z,63.37
2023-04-29T08:21:00.590Z,63.39
2023-04-29T08:23:28.996Z,63.38
2023-04-29T08:25:57.355Z,63.50
2023-04-29T08:28:26.157Z,63.41
2023-04-29T08:30:54.332Z,63.70
2023-04-29T08:33:23.199Z,63.74
2023-04-29T08:36:00.210Z,63.88
2023-04-29T08:38:28.847Z,64.03
2023-04-29T08:40:57.334Z,64.08
2023-04-29T08:43:26.526Z,64.13
2023-04-29T08:45:55.253Z,64.17
2023-04-29T08:48:24.161Z,64.30
2023-04-29T08:50:52.821Z,64.33
2023-04-29T08:53:22.110Z,64.41
2023-04-29T08:55:50.390Z,64.49
2023-04-29T08:58:19.156Z,64.61
2023-04-29T09:00:48.005Z,64.60
2023-04-29T09:03:26.789Z,64.65
2023-04-29T09:05:57.111Z,64.79
2023-04-29T09:08:25.919Z,64.76
2023-04-29T09:10:54.539Z,65.14
2023-04-29T09:13:33.392Z,64.93
2023-04-29T09:16:01.711Z,64.90
2023-04-29T09:18:52.083Z,65.05
2023-04-29T09:21:22.954Z,64.80
2023-04-29T09:23:59.168Z,65.02
2023-04-29T09:26:28.271Z,64.90
2023-04-29T09:29:16.993Z,65.20
2023-04-29T09:31:46.602Z,65.50
2023-04-29T09:34:15.864Z,65.39
2023-04-29T09:36:47.513Z,65.35
2023-04-29T09:39:23.289Z,65.42
2023-04-29T09:41:54.591Z,65.43
2023-04-29T09:44:29.183Z,65.46
2023-04-29T09:47:03.755Z,65.74
2023-04-29T09:49:39.202Z,65.72
2023-04-29T09:52:10.402Z,65.66
2023-04-29T09:54:40.607Z,65.67
2023-04-29T09:57:11.036Z,65.46
2023-04-29T09:59:41.563Z,65.93
2023-04-29T10:02:12.686Z,65.72
2023-04-29T10:04:43.595Z,65.72
2023-04-29T10:07:16.579Z,65.74
2023-04-29T10:09:47.609Z,65.59
2023-04-29T10:12:22.455Z,65.49
2023-04-29T10:15:05.763Z,65.51
2023-04-29T10:17:48.559Z,65.67
2023-04-29T10:20:24.216Z,65.28
2023-04-29T10:22:55.579Z,65.72
2023-04-29T10:25:25.502Z,65.88
2023-04-29T10:27:56.789Z,65.97
2023-04-29T10:30:25.083Z,65.95
2023-04-29T10:32:53.474Z,66.05
2023-04-29T10:35:26.255Z,66.12
2023-04-29T10:37:56.085Z,66.01
2023-04-29T10:40:43.666Z,66.29
2023-04-29T10:43:11.963Z,66.23
2023-04-29T10:45:40.624Z,66.17
2023-04-29T10:48:16.070Z,66.08
2023-04-29T10:50:50.205Z,66.42
2023-04-29T10:53:20.359Z,66.36
2023-04-29T10:55:49.943Z,66.22
2023-04-29T10:58:47.269Z,66.62
2023-04-29T11:01:17.532Z,66.57
2023-04-29T11:04:01.375Z,66.54
2023-04-29T11:06:38.575Z,66.63
2023-04-29T11:09:26.484Z,66.16
2023-04-29T11:12:01.423Z,66.20
2023-04-29T11:14:52.038Z,66.22
2023-04-29T11:17:21.573Z,66.49
2023-04-29T11:19:53.257Z,66.37
2023-04-29T11:22:25.015Z,66.41
2023-04-29T11:25:03.798Z,66.50
2023-04-29T11:27:43.966Z,66.55
2023-04-29T11:30:13.457Z,66.64
2023-04-29T11:32:43.710Z,66.59
2023-04-29T11:35:16.761Z,66.50
2023-04-29T11:37:46.515Z,66.65
2023-04-29T11:40:15.891Z,66.68
2023-04-29T11:42:49.518Z,66.69
2023-04-29T11:45:21.459Z,66.71
2023-04-29T11:47:52.081Z,66.75
2023-04-29T11:50:21.650Z,66.60
2023-04-29T11:52:50.804Z,66.63
2023-04-29T11:55:20.602Z,66.66
2023-04-29T11:57:53.076Z,66.83
2023-04-29T12:00:21.578Z,66.68
2023-04-29T12:02:49.898Z,66.69
2023-04-29T12:05:19.978Z,66.73
2023-04-29T12:07:51.945Z,66.78
2023-04-29T12:10:20.251Z,66.75
2023-04-29T12:12:49.701Z,66.73
2023-04-29T12:15:18.187Z,66.79
2023-04-29T12:17:47.502Z,66.86
2023-04-29T12:20:16.266Z,66.70
2023-04-29T12:22:44.800Z,66.86
2023-04-29T12:25:13.312Z,67.04
2023-04-29T12:27:45.736Z,67.14
2023-04-29T12:30:14.138Z,66.98
2023-04-29T12:32:42.655Z,67.01
2023-04-29T12:35:19.525Z,66.90
2023-04-29T12:37:53.673Z,66.75
2023-04-29T12:40:21.975Z,66.67
2023-04-29T12:42:50.337Z,66.99
2023-04-29T12:45:33.009Z,66.93
2023-04-29T12:48:05.655Z,67.15
2023-04-29T12:50:39.595Z,67.09
2023-04-29T12:53:09.554Z,66.99
2023-04-29T12:55:39.392Z,67.13
2023-04-29T12:58:08.288Z,67.42
2023-04-29T13:00:38.313Z,67.58
2023-04-29T13:03:06.924Z,67.52
2023-04-29T13:05:35.565Z,67.60
2023-04-29T13:08:04.217Z,67.57
2023-04-29T13:10:32.553Z,67.38
2023-04-29T13:13:01.111Z,67.66
2023-04-29T13:15:29.397Z,67.64
2023-04-29T13:17:59.474Z,67.67
2023-04-29T13:20:27.848Z,67.58
2023-04-29T13:22:56.005Z,68.06
2023-04-29T13:25:24.201Z,67.77
2023-04-29T13:27:52.524Z,67.99
2023-04-29T13:30:20.797Z,67.67
2023-04-29T13:32:54.905Z,67.54
2023-04-29T13:35:24.861Z,67.76
2023-04-29T13:37:53.259Z,67.57
2023-04-29T13:40:21.787Z,67.85
2023-04-29T13:42:56.902Z,67.77
2023-04-29T13:45:32.459Z,67.71
2023-04-29T13:48:07.522Z,67.73
2023-04-29T13:58:56.016Z,67.96
2023-04-29T14:03:35.949Z,67.57
2023-04-29T14:06:04.586Z,67.35
2023-04-29T14:08:32.783Z,67.71
2023-04-29T14:11:01.603Z,68.03
2023-04-29T14:13:30.349Z,67.92
2023-04-29T14:16:00.576Z,67.93
2023-04-29T14:18:30.937Z,68.12
2023-04-29T14:21:00.502Z,68.18
2023-04-29T14:23:28.762Z,68.11
2023-04-29T14:26:16.512Z,68.31
2023-04-29T14:28:45.696Z,67.79
2023-04-29T14:31:14.544Z,68.05
2023-04-29T14:33:42.828Z,67.75
2023-04-29T14:36:11.143Z,67.99
2023-04-29T14:38:39.351Z,67.83
2023-04-29T14:41:07.984Z,67.80
2023-04-29T14:43:37.092Z,67.73
2023-04-29T14:46:05.435Z,67.83
2023-04-29T14:48:34.029Z,67.99
2023-04-29T14:51:02.227Z,67.74
2023-04-29T14:53:30.433Z,67.66
2023-04-29T14:55:58.767Z,67.70
2023-04-29T14:58:27.000Z,68.02
2023-04-29T15:00:55.247Z,67.69
2023-04-29T15:03:24.313Z,67.52
2023-04-29T15:05:53.162Z,67.96
2023-04-29T15:08:21.640Z,67.73
2023-04-29T15:10:50.499Z,67.58
2023-04-29T15:13:18.708Z,67.64
2023-04-29T15:15:47.517Z,67.65
2023-04-29T15:18:15.773Z,67.51
2023-04-29T15:20:43.970Z,67.50
2023-04-29T15:23:12.379Z,67.37
2023-04-29T15:25:40.628Z,67.26
2023-04-29T15:28:09.010Z,67.00
2023-04-29T15:30:37.337Z,67.01
2023-04-29T15:33:07.594Z,66.85
2023-04-29T15:35:37.395Z,67.13
2023-04-29T15:38:05.630Z,66.85
2023-04-29T15:40:33.889Z,66.74
2023-04-29T15:43:02.302Z,66.86
2023-04-29T15:45:30.527Z,66.78
2023-04-29T15:47:58.937Z,66.71
2023-04-29T15:50:27.297Z,66.61
2023-04-29T15:52:56.823Z,66.32
2023-04-29T15:55:25.029Z,66.22
2023-04-29T15:57:53.257Z,65.92
2023-04-29T16:00:21.548Z,65.97
2023-04-29T16:02:50.050Z,65.91
2023-04-29T16:05:18.382Z,65.69
2023-04-29T16:07:46.912Z,65.55
2023-04-29T16:10:15.250Z,65.07
2023-04-29T16:12:43.970Z,65.44
2023-04-29T16:15:12.508Z,65.02
2023-04-29T16:17:40.845Z,64.86
2023-04-29T16:20:09.830Z,64.68
2023-04-29T16:22:38.085Z,64.83
2023-04-29T16:25:06.725Z,64.77
2023-04-29T16:27:34.972Z,64.93
2023-04-29T16:30:03.397Z,64.48
2023-04-29T16:32:32.275Z,64.63
2023-04-29T16:35:01.497Z,64.25
2023-04-29T16:37:30.363Z,64.06
2023-04-29T16:39:59.087Z,63.77
2023-04-29T16:42:27.387Z,63.26
2023-04-29T16:44:55.583Z,63.47
2023-04-29T16:47:24.966Z,63.28
2023-04-29T16:49:53.506Z,63.07
2023-04-29T16:52:22.509Z,62.82
2023-04-29T16:54:50.720Z,63.23
2023-04-29T16:57:18.934Z,63.06
2023-04-29T16:59:47.497Z,62.90
2023-04-29T17:02:15.681Z,62.76
2023-04-29T17:04:44.271Z,62.70
2023-04-29T17:07:14.847Z,62.63
2023-04-29T17:09:43.054Z,62.82
2023-04-29T17:12:11.353Z,62.39
2023-04-29T17:14:40.820Z,61.89
2023-04-29T17:17:09.083Z,62.05
2023-04-29T17:19:37.287Z,61.87
2023-04-29T17:22:05.869Z,61.74
2023-04-29T17:24:34.642Z,61.67
2023-04-29T17:27:02.884Z,61.06
2023-04-29T17:29:31.106Z,60.59
2023-04-29T17:32:00.968Z,60.87
2023-04-29T17:34:31.791Z,61.07
2023-04-29T17:36:59.999Z,60.50
2023-04-29T17:39:28.234Z,60.56
2023-04-29T17:41:56.549Z,60.26
2023-04-29T17:44:24.781Z,59.95
2023-04-29T17:46:53.060Z,59.77
2023-04-29T17:49:21.450Z,59.57
2023-04-29T17:51:49.677Z,59.29
2023-04-29T17:54:17.937Z,59.21
2023-04-29T17:56:46.395Z,59.15
2023-04-29T17:59:14.590Z,59.59
2023-04-29T18:01:43.385Z,59.15
2023-04-29T18:04:11.782Z,58.78
2023-04-29T18:06:40.141Z,58.60
2023-04-29T18:09:08.579Z,58.93
2023-04-29T18:11:36.844Z,58.88
2023-04-29T18:14:05.689Z,58.44
2023-04-29T18:16:34.146Z,57.77
2023-04-29T18:19:02.457Z,57.65
2023-04-29T18:21:30.699Z,57.66
2023-04-29T18:23:59.178Z,57.19
2023-04-29T18:26:27.720Z,57.34
2023-04-29T18:28:55.965Z,56.89
2023-04-29T18:31:26.012Z,56.73
2023-04-29T18:33:54.513Z,56.66
2023-04-29T18:36:24.469Z,56.34
2023-04-29T18:38:52.922Z,55.95
2023-04-29T18:41:21.151Z,55.68
2023-04-29T18:43:49.402Z,55.60
2023-04-29T18:46:18.061Z,55.24
2023-04-29T18:48:46.338Z,54.95
2023-04-29T18:51:14.631Z,54.84
2023-04-29T18:53:42.972Z,54.54
2023-04-29T18:56:11.287Z,54.32
2023-04-29T18:58:39.553Z,53.73
2023-04-29T19:01:07.933Z,53.45
2023-04-29T19:03:36.678Z,52.56
2023-04-29T19:06:04.993Z,53.06
2023-04-29T19:08:33.265Z,52.48
2023-04-29T19:11:01.590Z,51.77
2023-04-29T19:13:30.208Z,51.09
2023-04-29T19:15:58.570Z,51.56
2023-04-29T19:18:27.248Z,51.28
2023-04-29T19:20:56.867Z,50.66
2023-04-29T19:23:25.095Z,50.25
2023-04-29T19:25:53.343Z,49.05
2023-04-29T19:28:21.670Z,49.53
2023-04-29T19:30:50.049Z,48.49
2023-04-29T19:33:18.296Z,49.01
2023-04-29T19:35:47.137Z,48.95
2023-04-29T19:38:15.378Z,48.80
2023-04-29T19:40:43.591Z,47.26
2023-04-29T19:43:11.889Z,47.24
2023-04-29T19:45:40.408Z,47.42
2023-04-29T19:48:08.675Z,47.23
2023-04-29T19:50:36.885Z,46.63
2023-04-29T19:53:05.067Z,46.39
2023-04-29T19:55:34.591Z,46.81
2023-04-29T19:58:02.920Z,46.74
2023-04-29T20:00:31.916Z,46.89
2023-04-29T20:03:00.321Z,46.94
2023-04-29T20:05:29.248Z,46.75
2023-04-29T20:07:57.818Z,47.89
2023-04-29T20:10:28.991Z,47.34
2023-04-29T20:12:58.385Z,46.92
2023-04-29T20:15:27.117Z,46.10
2023-04-29T20:17:56.474Z,46.81
2023-04-29T20:20:25.862Z,46.43
2023-04-29T20:22:58.756Z,46.94
2023-04-29T20:25:27.875Z,46.13
2023-04-29T20:27:56.285Z,46.27
2023-04-29T20:30:24.911Z,46.54
2023-04-29T20:32:53.435Z,46.18
2023-04-29T20:35:22.138Z,45.97
2023-04-29T20:37:50.548Z,45.37
2023-04-29T20:40:19.289Z,45.74
2023-04-29T20:42:48.078Z,45.46
2023-04-29T20:45:16.708Z,45.33
2023-04-29T20:47:45.290Z,44.99
2023-04-29T20:50:13.915Z,44.94
2023-04-29T20:52:42.489Z,44.69
2023-04-29T20:55:11.240Z,44.29
2023-04-29T20:57:40.444Z,44.67
2023-04-29T21:00:10.447Z,44.20
2023-04-29T21:02:38.664Z,44.19
2023-04-29T21:05:07.279Z,43.73
2023-04-29T21:07:35.505Z,43.80
2023-04-29T21:10:03.886Z,43.86
2023-04-29T21:12:32.159Z,43.44
2023-04-29T21:15:00.363Z,43.73
2023-04-29T21:17:28.633Z,43.76
2023-04-29T21:19:57.573Z,42.20
2023-04-29T21:22:25.844Z,42.66
2023-04-29T21:24:54.046Z,43.25
2023-04-29T21:27:22.522Z,43.14
2023-04-29T21:29:50.715Z,42.71
2023-04-29T21:32:22.365Z,42.53
2023-04-29T21:34:50.861Z,42.14
2023-04-29T21:37:19.138Z,42.30
2023-04-29T21:39:47.774Z,42.43
2023-04-29T21:42:21.955Z,42.28
2023-04-29T21:44:49.809Z,41.57
2023-04-29T21:47:18.140Z,41.67
2023-04-29T21:49:46.516Z,42.12
2023-04-29T21:52:14.708Z,42.10
2023-04-29T21:54:42.899Z,42.31
2023-04-29T21:57:11.262Z,42.12
2023-04-29T21:59:39.601Z,41.70
2023-04-29T22:02:23.177Z,41.72
2023-04-29T22:04:55.068Z,41.74
2023-04-29T22:07:24.118Z,42.17
2023-04-29T22:09:52.695Z,41.57
2023-04-29T22:12:21.859Z,41.89
2023-04-29T22:14:50.152Z,42.00
2023-04-29T22:17:18.360Z,41.72
2023-04-29T22:19:46.847Z,42.11
2023-04-29T22:22:15.222Z,42.21
2023-04-29T22:24:43.425Z,41.85
2023-04-29T22:27:11.621Z,42.42
2023-04-29T22:29:40.426Z,42.27
2023-04-29T22:32:09.042Z,42.51
2023-04-29T22:34:37.646Z,42.90
2023-04-29T22:37:05.891Z,43.03
2023-04-29T22:39:34.212Z,43.39
2023-04-29T22:42:05.459Z,43.71
2023-04-29T22:44:33.811Z,43.26
2023-04-29T22:47:02.613Z,43.52
2023-04-29T22:49:30.775Z,44.04
2023-04-29T22:51:59.014Z,44.09
2023-04-29T22:54:27.344Z,44.35
2023-04-29T22:56:55.513Z,44.30
2023-04-29T22:59:23.742Z,44.39
2023-04-29T23:01:52.565Z,44.02
2023-04-29T23:04:21.354Z,43.73
2023-04-29T23:06:49.681Z,43.73
2023-04-29T23:09:18.028Z,43.95
2023-04-29T23:11:46.368Z,43.64
2023-04-29T23:14:14.571Z,43.98
2023-04-29T23:16:42.793Z,43.65
2023-04-29T23:19:11.142Z,44.06
2023-04-29T23:21:39.402Z,44.31
2023-04-29T23:24:07.695Z,44.35
2023-04-29T23:26:35.885Z,44.62
2023-04-29T23:29:04.070Z,44.56
2023-04-29T23:31:32.296Z,44.69
2023-04-29T23:34:00.852Z,43.88
2023-04-29T23:36:29.081Z,44.58
2023-04-29T23:38:57.299Z,45.10
2023-04-29T23:41:25.535Z,44.82
2023-04-29T23:43:54.165Z,44.92
2023-04-29T23:46:22.458Z,44.68
2023-04-29T23:48:50.744Z,44.81
2023-04-29T23:51:18.942Z,44.78
2023-04-29T23:53:47.515Z,44.39
2023-04-29T23:56:15.699Z,44.58
2023-04-29T23:58:43.913Z,44.77
